sensor_id;sensor_type;location;lat;lon;timestamp;P1;durP1;ratioP1;P2;durP2;ratioP2
58472;SDS011;44775;51.564;5.460;2023-01-01T00:02:04;12.38;;;4.10;;
58472;SDS011;44775;51.564;5.460;2023-01-01T00:04:31;16.40;;;6.32;;
58472;SDS011;44775;51.564;5.460;2023-01-01T00:06:58;9.55;;;3.42;;
58472;SDS011;44775;51.564;5.460;2023-01-01T00:09:24;10.43;;;3.90;;
58472;SDS011;44775;51.564;5.460;2023-01-01T00:12:08;9.85;;;4.15;;
58472;SDS011;44775;51.564;5.460;2023-01-01T00:14:33;13.68;;;3.72;;
58472;SDS011;44775;51.564;5.460;2023-01-01T00:16:59;8.73;;;3.40;;
58472;SDS011;44775;51.564;5.460;2023-01-01T00:19:24;13.70;;;3.97;;
58472;SDS011;44775;51.564;5.460;2023-01-01T00:21:49;12.60;;;3.70;;
58472;SDS011;44775;51.564;5.460;2023-01-01T00:24:15;16.42;;;3.83;;
58472;SDS011;44775;51.564;5.460;2023-01-01T00:26:40;15.63;;;3.70;;
58472;SDS011;44775;51.564;5.460;2023-01-01T00:29:06;9.82;;;3.72;;
58472;SDS011;44775;51.564;5.460;2023-01-01T00:31:31;11.50;;;3.15;;
58472;SDS011;44775;51.564;5.460;2023-01-01T00:33:57;11.25;;;3.60;;
58472;SDS011;44775;51.564;5.460;2023-01-01T00:36:24;7.75;;;3.30;;
58472;SDS011;44775;51.564;5.460;2023-01-01T00:38:51;8.52;;;2.90;;
58472;SDS011;44775;51.564;5.460;2023-01-01T00:41:18;13.75;;;3.17;;
58472;SDS011;44775;51.564;5.460;2023-01-01T00:43:43;9.43;;;3.15;;
58472;SDS011;44775;51.564;5.460;2023-01-01T00:46:09;15.05;;;3.85;;
58472;SDS011;44775;51.564;5.460;2023-01-01T00:48:35;15.65;;;4.38;;
58472;SDS011;44775;51.564;5.460;2023-01-01T00:51:01;11.55;;;3.70;;
58472;SDS011;44775;51.564;5.460;2023-01-01T00:53:27;13.57;;;4.07;;
58472;SDS011;44775;51.564;5.460;2023-01-01T00:55:53;9.02;;;3.25;;
58472;SDS011;44775;51.564;5.460;2023-01-01T00:58:20;16.95;;;4.07;;
58472;SDS011;44775;51.564;5.460;2023-01-01T01:00:47;11.05;;;4.07;;
58472;SDS011;44775;51.564;5.460;2023-01-01T01:03:13;14.15;;;3.80;;
58472;SDS011;44775;51.564;5.460;2023-01-01T01:08:26;12.10;;;3.70;;
58472;SDS011;44775;51.564;5.460;2023-01-01T01:10:52;13.00;;;3.42;;
58472;SDS011;44775;51.564;5.460;2023-01-01T01:13:18;14.98;;;3.50;;
58472;SDS011;44775;51.564;5.460;2023-01-01T01:15:44;11.65;;;3.17;;
58472;SDS011;44775;51.564;5.460;2023-01-01T01:18:10;9.40;;;3.15;;
58472;SDS011;44775;51.564;5.460;2023-01-01T01:20:35;11.18;;;3.20;;
58472;SDS011;44775;51.564;5.460;2023-01-01T01:23:01;8.70;;;3.10;;
58472;SDS011;44775;51.564;5.460;2023-01-01T01:25:26;9.68;;;2.80;;
58472;SDS011;44775;51.564;5.460;2023-01-01T01:27:52;9.77;;;2.75;;
58472;SDS011;44775;51.564;5.460;2023-01-01T01:30:17;9.05;;;2.97;;
58472;SDS011;44775;51.564;5.460;2023-01-01T01:32:43;8.85;;;3.42;;
58472;SDS011;44775;51.564;5.460;2023-01-01T01:35:08;11.75;;;3.00;;
58472;SDS011;44775;51.564;5.460;2023-01-01T01:37:34;11.40;;;3.10;;
58472;SDS011;44775;51.564;5.460;2023-01-01T01:39:59;10.98;;;3.00;;
58472;SDS011;44775;51.564;5.460;2023-01-01T01:42:24;6.32;;;2.70;;
58472;SDS011;44775;51.564;5.460;2023-01-01T01:44:52;9.88;;;3.10;;
58472;SDS011;44775;51.564;5.460;2023-01-01T01:47:27;7.22;;;2.47;;
58472;SDS011;44775;51.564;5.460;2023-01-01T01:49:56;7.57;;;2.90;;
58472;SDS011;44775;51.564;5.460;2023-01-01T01:52:28;7.70;;;2.40;;
58472;SDS011;44775;51.564;5.460;2023-01-01T01:54:58;7.57;;;2.88;;
58472;SDS011;44775;51.564;5.460;2023-01-01T01:57:26;9.48;;;2.80;;
58472;SDS011;44775;51.564;5.460;2023-01-01T01:59:52;8.90;;;2.60;;
58472;SDS011;44775;51.564;5.460;2023-01-01T02:02:27;6.97;;;2.65;;
58472;SDS011;44775;51.564;5.460;2023-01-01T02:04:58;12.48;;;3.13;;
58472;SDS011;44775;51.564;5.460;2023-01-01T02:07:24;9.98;;;2.80;;
58472;SDS011;44775;51.564;5.460;2023-01-01T02:09:53;10.10;;;2.78;;
58472;SDS011;44775;51.564;5.460;2023-01-01T02:12:19;8.23;;;2.95;;
58472;SDS011;44775;51.564;5.460;2023-01-01T02:14:45;10.90;;;2.70;;
58472;SDS011;44775;51.564;5.460;2023-01-01T02:17:13;10.57;;;2.90;;
58472;SDS011;44775;51.564;5.460;2023-01-01T02:30:55;7.53;;;2.72;;
58472;SDS011;44775;51.564;5.460;2023-01-01T02:33:22;6.13;;;2.40;;
58472;SDS011;44775;51.564;5.460;2023-01-01T02:35:51;12.25;;;3.10;;
58472;SDS011;44775;51.564;5.460;2023-01-01T02:38:33;8.50;;;2.50;;
58472;SDS011;44775;51.564;5.460;2023-01-01T02:41:02;9.25;;;2.60;;
58472;SDS011;44775;51.564;5.460;2023-01-01T02:43:31;8.35;;;2.33;;
58472;SDS011;44775;51.564;5.460;2023-01-01T02:45:57;5.53;;;2.03;;
58472;SDS011;44775;51.564;5.460;2023-01-01T02:51:03;9.70;;;2.72;;
58472;SDS011;44775;51.564;5.460;2023-01-01T02:54:14;6.55;;;2.50;;
58472;SDS011;44775;51.564;5.460;2023-01-01T03:11:31;10.63;;;2.10;;
58472;SDS011;44775;51.564;5.460;2023-01-01T03:16:49;8.38;;;2.30;;
58472;SDS011;44775;51.564;5.460;2023-01-01T03:19:29;11.20;;;2.47;;
58472;SDS011;44775;51.564;5.460;2023-01-01T03:22:07;6.47;;;2.05;;
58472;SDS011;44775;51.564;5.460;2023-01-01T03:27:07;7.05;;;2.40;;
58472;SDS011;44775;51.564;5.460;2023-01-01T03:29:39;6.93;;;2.30;;
58472;SDS011;44775;51.564;5.460;2023-01-01T03:32:07;5.75;;;2.20;;
58472;SDS011;44775;51.564;5.460;2023-01-01T03:34:39;9.18;;;2.33;;
58472;SDS011;44775;51.564;5.460;2023-01-01T03:37:11;8.43;;;1.90;;
58472;SDS011;44775;51.564;5.460;2023-01-01T03:39:44;11.77;;;2.75;;
58472;SDS011;44775;51.564;5.460;2023-01-01T03:42:49;11.88;;;2.70;;
58472;SDS011;44775;51.564;5.460;2023-01-01T03:45:18;11.52;;;2.40;;
58472;SDS011;44775;51.564;5.460;2023-01-01T03:47:49;10.43;;;2.53;;
58472;SDS011;44775;51.564;5.460;2023-01-01T03:50:15;11.68;;;2.70;;
58472;SDS011;44775;51.564;5.460;2023-01-01T03:52:48;8.25;;;2.55;;
58472;SDS011;44775;51.564;5.460;2023-01-01T03:55:18;5.53;;;2.17;;
58472;SDS011;44775;51.564;5.460;2023-01-01T04:00:37;6.72;;;2.20;;
58472;SDS011;44775;51.564;5.460;2023-01-01T04:03:12;3.92;;;1.95;;
58472;SDS011;44775;51.564;5.460;2023-01-01T04:05:42;7.50;;;2.20;;
58472;SDS011;44775;51.564;5.460;2023-01-01T04:08:08;4.93;;;1.88;;
58472;SDS011;44775;51.564;5.460;2023-01-01T04:10:36;9.40;;;2.10;;
58472;SDS011;44775;51.564;5.460;2023-01-01T04:13:06;7.68;;;2.28;;
58472;SDS011;44775;51.564;5.460;2023-01-01T04:15:31;8.10;;;2.20;;
58472;SDS011;44775;51.564;5.460;2023-01-01T04:17:58;6.72;;;2.40;;
58472;SDS011;44775;51.564;5.460;2023-01-01T04:20:24;5.20;;;2.22;;
58472;SDS011;44775;51.564;5.460;2023-01-01T04:22:50;6.38;;;2.30;;
58472;SDS011;44775;51.564;5.460;2023-01-01T04:25:16;6.90;;;2.50;;
58472;SDS011;44775;51.564;5.460;2023-01-01T04:27:42;6.25;;;1.90;;
58472;SDS011;44775;51.564;5.460;2023-01-01T04:30:09;9.18;;;2.20;;
58472;SDS011;44775;51.564;5.460;2023-01-01T04:32:36;6.13;;;2.33;;
58472;SDS011;44775;51.564;5.460;2023-01-01T04:35:02;8.82;;;2.35;;
58472;SDS011;44775;51.564;5.460;2023-01-01T04:37:27;9.95;;;2.50;;
58472;SDS011;44775;51.564;5.460;2023-01-01T04:39:53;5.15;;;2.38;;
58472;SDS011;44775;51.564;5.460;2023-01-01T04:42:18;9.88;;;2.20;;
58472;SDS011;44775;51.564;5.460;2023-01-01T04:44:44;6.18;;;2.38;;
58472;SDS011;44775;51.564;5.460;2023-01-01T04:47:09;7.05;;;2.50;;
58472;SDS011;44775;51.564;5.460;2023-01-01T04:49:35;5.95;;;2.38;;
58472;SDS011;44775;51.564;5.460;2023-01-01T04:52:00;6.97;;;2.65;;
58472;SDS011;44775;51.564;5.460;2023-01-01T04:54:26;7.18;;;2.50;;
58472;SDS011;44775;51.564;5.460;2023-01-01T04:56:51;5.32;;;2.38;;
58472;SDS011;44775;51.564;5.460;2023-01-01T04:59:17;8.38;;;2.40;;
58472;SDS011;44775;51.564;5.460;2023-01-01T05:01:42;5.32;;;2.15;;
58472;SDS011;44775;51.564;5.460;2023-01-01T05:04:08;8.60;;;2.53;;
58472;SDS011;44775;51.564;5.460;2023-01-01T05:06:37;6.88;;;2.88;;
58472;SDS011;44775;51.564;5.460;2023-01-01T05:09:02;7.15;;;2.30;;
58472;SDS011;44775;51.564;5.460;2023-01-01T05:11:28;4.97;;;2.08;;
58472;SDS011;44775;51.564;5.460;2023-01-01T05:13:55;7.20;;;2.30;;
58472;SDS011;44775;51.564;5.460;2023-01-01T05:16:25;6.95;;;2.38;;
58472;SDS011;44775;51.564;5.460;2023-01-01T05:18:52;9.93;;;2.25;;
58472;SDS011;44775;51.564;5.460;2023-01-01T05:21:22;8.18;;;2.58;;
58472;SDS011;44775;51.564;5.460;2023-01-01T05:23:54;7.85;;;2.25;;
58472;SDS011;44775;51.564;5.460;2023-01-01T05:26:22;5.97;;;2.00;;
58472;SDS011;44775;51.564;5.460;2023-01-01T05:28:48;7.03;;;2.30;;
58472;SDS011;44775;51.564;5.460;2023-01-01T05:31:16;10.35;;;2.20;;
58472;SDS011;44775;51.564;5.460;2023-01-01T05:33:42;10.40;;;2.70;;
58472;SDS011;44775;51.564;5.460;2023-01-01T05:36:15;11.27;;;2.40;;
58472;SDS011;44775;51.564;5.460;2023-01-01T05:38:43;6.93;;;2.22;;
58472;SDS011;44775;51.564;5.460;2023-01-01T05:41:10;8.48;;;2.53;;
58472;SDS011;44775;51.564;5.460;2023-01-01T05:46:44;7.93;;;2.40;;
58472;SDS011;44775;51.564;5.460;2023-01-01T05:48:51;8.40;;;2.67;;
58472;SDS011;44775;51.564;5.460;2023-01-01T05:51:18;10.45;;;2.47;;
58472;SDS011;44775;51.564;5.460;2023-01-01T05:53:45;6.28;;;2.30;;
58472;SDS011;44775;51.564;5.460;2023-01-01T05:56:12;7.18;;;2.58;;
58472;SDS011;44775;51.564;5.460;2023-01-01T05:58:39;9.25;;;2.55;;
58472;SDS011;44775;51.564;5.460;2023-01-01T06:01:06;10.13;;;2.58;;
58472;SDS011;44775;51.564;5.460;2023-01-01T06:03:37;11.85;;;2.50;;
58472;SDS011;44775;51.564;5.460;2023-01-01T06:06:06;9.52;;;2.33;;
58472;SDS011;44775;51.564;5.460;2023-01-01T06:08:34;9.27;;;2.42;;
58472;SDS011;44775;51.564;5.460;2023-01-01T06:11:03;7.65;;;2.40;;
58472;SDS011;44775;51.564;5.460;2023-01-01T06:13:30;9.63;;;2.50;;
58472;SDS011;44775;51.564;5.460;2023-01-01T06:15:57;8.52;;;2.40;;
58472;SDS011;44775;51.564;5.460;2023-01-01T06:18:24;10.32;;;2.72;;
58472;SDS011;44775;51.564;5.460;2023-01-01T06:20:51;10.00;;;2.65;;
58472;SDS011;44775;51.564;5.460;2023-01-01T06:23:17;7.38;;;2.80;;
58472;SDS011;44775;51.564;5.460;2023-01-01T06:25:42;10.38;;;2.90;;
58472;SDS011;44775;51.564;5.460;2023-01-01T06:28:08;7.95;;;2.50;;
58472;SDS011;44775;51.564;5.460;2023-01-01T06:30:34;10.05;;;2.42;;
58472;SDS011;44775;51.564;5.460;2023-01-01T06:33:00;5.35;;;2.40;;
58472;SDS011;44775;51.564;5.460;2023-01-01T06:35:26;9.20;;;2.22;;
58472;SDS011;44775;51.564;5.460;2023-01-01T06:37:52;8.18;;;2.53;;
58472;SDS011;44775;51.564;5.460;2023-01-01T06:40:17;6.55;;;2.92;;
58472;SDS011;44775;51.564;5.460;2023-01-01T06:42:43;6.70;;;2.80;;
58472;SDS011;44775;51.564;5.460;2023-01-01T06:45:08;9.02;;;3.33;;
58472;SDS011;44775;51.564;5.460;2023-01-01T06:47:34;7.20;;;3.53;;
58472;SDS011;44775;51.564;5.460;2023-01-01T06:50:01;8.10;;;3.72;;
58472;SDS011;44775;51.564;5.460;2023-01-01T06:52:27;9.32;;;3.83;;
58472;SDS011;44775;51.564;5.460;2023-01-01T06:54:53;7.63;;;3.50;;
58472;SDS011;44775;51.564;5.460;2023-01-01T06:57:18;6.68;;;3.35;;
58472;SDS011;44775;51.564;5.460;2023-01-01T06:59:44;11.05;;;4.40;;
58472;SDS011;44775;51.564;5.460;2023-01-01T07:02:10;6.68;;;4.88;;
58472;SDS011;44775;51.564;5.460;2023-01-01T07:04:36;8.32;;;5.10;;
58472;SDS011;44775;51.564;5.460;2023-01-01T07:07:01;6.80;;;4.07;;
58472;SDS011;44775;51.564;5.460;2023-01-01T07:09:27;8.73;;;4.40;;
58472;SDS011;44775;51.564;5.460;2023-01-01T07:11:52;8.73;;;4.53;;
58472;SDS011;44775;51.564;5.460;2023-01-01T07:14:18;9.07;;;4.70;;
58472;SDS011;44775;51.564;5.460;2023-01-01T07:16:43;14.00;;;4.47;;
58472;SDS011;44775;51.564;5.460;2023-01-01T07:19:09;9.95;;;4.25;;
58472;SDS011;44775;51.564;5.460;2023-01-01T07:21:42;8.00;;;4.10;;
58472;SDS011;44775;51.564;5.460;2023-01-01T07:24:11;7.65;;;3.50;;
58472;SDS011;44775;51.564;5.460;2023-01-01T07:26:38;10.10;;;3.70;;
58472;SDS011;44775;51.564;5.460;2023-01-01T07:29:05;9.45;;;3.33;;
58472;SDS011;44775;51.564;5.460;2023-01-01T07:31:32;6.78;;;2.78;;
58472;SDS011;44775;51.564;5.460;2023-01-01T07:33:59;9.25;;;2.65;;
58472;SDS011;44775;51.564;5.460;2023-01-01T07:36:24;9.02;;;2.40;;
58472;SDS011;44775;51.564;5.460;2023-01-01T07:38:49;8.10;;;2.20;;
58472;SDS011;44775;51.564;5.460;2023-01-01T07:41:15;3.92;;;1.90;;
58472;SDS011;44775;51.564;5.460;2023-01-01T07:43:40;5.40;;;1.75;;
58472;SDS011;44775;51.564;5.460;2023-01-01T07:46:06;5.30;;;1.73;;
58472;SDS011;44775;51.564;5.460;2023-01-01T07:48:34;6.38;;;1.92;;
58472;SDS011;44775;51.564;5.460;2023-01-01T07:50:59;8.73;;;1.60;;
58472;SDS011;44775;51.564;5.460;2023-01-01T07:53:25;5.30;;;1.77;;
58472;SDS011;44775;51.564;5.460;2023-01-01T07:55:50;7.85;;;1.70;;
58472;SDS011;44775;51.564;5.460;2023-01-01T07:58:16;5.97;;;1.73;;
58472;SDS011;44775;51.564;5.460;2023-01-01T08:00:44;6.70;;;1.80;;
58472;SDS011;44775;51.564;5.460;2023-01-01T08:03:11;6.50;;;1.90;;
58472;SDS011;44775;51.564;5.460;2023-01-01T08:05:36;5.93;;;1.90;;
58472;SDS011;44775;51.564;5.460;2023-01-01T08:08:02;5.82;;;1.70;;
58472;SDS011;44775;51.564;5.460;2023-01-01T08:10:28;7.50;;;2.10;;
58472;SDS011;44775;51.564;5.460;2023-01-01T08:12:58;6.63;;;1.88;;
58472;SDS011;44775;51.564;5.460;2023-01-01T08:15:27;7.82;;;1.98;;
58472;SDS011;44775;51.564;5.460;2023-01-01T08:17:57;10.98;;;2.20;;
58472;SDS011;44775;51.564;5.460;2023-01-01T08:20:23;8.93;;;2.35;;
58472;SDS011;44775;51.564;5.460;2023-01-01T08:22:49;7.57;;;2.40;;
58472;SDS011;44775;51.564;5.460;2023-01-01T08:25:15;6.93;;;2.17;;
58472;SDS011;44775;51.564;5.460;2023-01-01T08:27:40;6.95;;;2.55;;
58472;SDS011;44775;51.564;5.460;2023-01-01T08:30:06;8.27;;;2.45;;
58472;SDS011;44775;51.564;5.460;2023-01-01T08:32:32;11.82;;;2.70;;
58472;SDS011;44775;51.564;5.460;2023-01-01T08:34:57;6.20;;;2.40;;
58472;SDS011;44775;51.564;5.460;2023-01-01T08:37:23;9.45;;;3.20;;
58472;SDS011;44775;51.564;5.460;2023-01-01T08:39:49;8.52;;;2.60;;
58472;SDS011;44775;51.564;5.460;2023-01-01T08:42:15;5.90;;;2.75;;
58472;SDS011;44775;51.564;5.460;2023-01-01T08:44:41;9.70;;;2.80;;
58472;SDS011;44775;51.564;5.460;2023-01-01T08:47:14;9.25;;;3.28;;
58472;SDS011;44775;51.564;5.460;2023-01-01T08:49:44;8.80;;;3.83;;
58472;SDS011;44775;51.564;5.460;2023-01-01T08:52:10;5.75;;;3.00;;
58472;SDS011;44775;51.564;5.460;2023-01-01T08:54:35;9.52;;;3.67;;
58472;SDS011;44775;51.564;5.460;2023-01-01T08:57:01;10.10;;;4.85;;
58472;SDS011;44775;51.564;5.460;2023-01-01T08:59:26;11.23;;;3.90;;
58472;SDS011;44775;51.564;5.460;2023-01-01T09:01:52;10.45;;;3.50;;
58472;SDS011;44775;51.564;5.460;2023-01-01T09:04:17;8.52;;;3.42;;
58472;SDS011;44775;51.564;5.460;2023-01-01T09:06:42;8.45;;;3.20;;
58472;SDS011;44775;51.564;5.460;2023-01-01T09:09:08;10.27;;;3.50;;
58472;SDS011;44775;51.564;5.460;2023-01-01T09:11:33;11.63;;;3.35;;
58472;SDS011;44775;51.564;5.460;2023-01-01T09:13:59;13.52;;;3.65;;
58472;SDS011;44775;51.564;5.460;2023-01-01T09:16:24;9.90;;;3.42;;
58472;SDS011;44775;51.564;5.460;2023-01-01T09:18:50;11.30;;;3.28;;
58472;SDS011;44775;51.564;5.460;2023-01-01T09:21:16;9.38;;;3.63;;
58472;SDS011;44775;51.564;5.460;2023-01-01T09:23:41;19.45;;;5.70;;
58472;SDS011;44775;51.564;5.460;2023-01-01T09:26:07;21.02;;;6.60;;
58472;SDS011;44775;51.564;5.460;2023-01-01T09:28:34;15.98;;;5.78;;
58472;SDS011;44775;51.564;5.460;2023-01-01T09:31:01;14.98;;;6.75;;
58472;SDS011;44775;51.564;5.460;2023-01-01T09:33:30;13.02;;;4.43;;
58472;SDS011;44775;51.564;5.460;2023-01-01T09:36:09;13.25;;;5.43;;
58472;SDS011;44775;51.564;5.460;2023-01-01T09:38:52;10.40;;;4.30;;
58472;SDS011;44775;51.564;5.460;2023-01-01T09:44:25;12.15;;;3.85;;
58472;SDS011;44775;51.564;5.460;2023-01-01T09:47:04;8.90;;;3.67;;
58472;SDS011;44775;51.564;5.460;2023-01-01T09:49:52;14.05;;;4.35;;
58472;SDS011;44775;51.564;5.460;2023-01-01T09:52:20;10.40;;;4.40;;
58472;SDS011;44775;51.564;5.460;2023-01-01T09:54:51;10.85;;;3.90;;
58472;SDS011;44775;51.564;5.460;2023-01-01T09:57:23;10.73;;;3.55;;
58472;SDS011;44775;51.564;5.460;2023-01-01T09:59:55;9.35;;;3.63;;
58472;SDS011;44775;51.564;5.460;2023-01-01T10:05:07;14.13;;;5.00;;
58472;SDS011;44775;51.564;5.460;2023-01-01T10:08:04;13.23;;;5.60;;
58472;SDS011;44775;51.564;5.460;2023-01-01T10:10:40;11.55;;;5.90;;
58472;SDS011;44775;51.564;5.460;2023-01-01T10:13:21;14.95;;;5.25;;
58472;SDS011;44775;51.564;5.460;2023-01-01T10:16:00;13.23;;;5.80;;
58472;SDS011;44775;51.564;5.460;2023-01-01T10:18:28;14.95;;;5.45;;
58472;SDS011;44775;51.564;5.460;2023-01-01T10:21:06;12.95;;;6.03;;
58472;SDS011;44775;51.564;5.460;2023-01-01T10:23:39;12.02;;;6.30;;
58472;SDS011;44775;51.564;5.460;2023-01-01T10:26:14;16.15;;;6.10;;
58472;SDS011;44775;51.564;5.460;2023-01-01T10:28:47;14.20;;;5.70;;
58472;SDS011;44775;51.564;5.460;2023-01-01T10:31:24;9.63;;;4.88;;
58472;SDS011;44775;51.564;5.460;2023-01-01T10:33:54;13.25;;;4.93;;
58472;SDS011;44775;51.564;5.460;2023-01-01T10:36:20;15.32;;;4.65;;
58472;SDS011;44775;51.564;5.460;2023-01-01T10:38:47;13.52;;;4.72;;
58472;SDS011;44775;51.564;5.460;2023-01-01T10:41:13;10.75;;;4.47;;
58472;SDS011;44775;51.564;5.460;2023-01-01T10:43:40;13.88;;;4.97;;
58472;SDS011;44775;51.564;5.460;2023-01-01T10:46:05;11.65;;;4.60;;
58472;SDS011;44775;51.564;5.460;2023-01-01T10:48:37;12.95;;;4.80;;
58472;SDS011;44775;51.564;5.460;2023-01-01T10:51:05;10.07;;;4.57;;
58472;SDS011;44775;51.564;5.460;2023-01-01T10:53:42;15.55;;;4.75;;
58472;SDS011;44775;51.564;5.460;2023-01-01T10:56:17;12.20;;;4.03;;
58472;SDS011;44775;51.564;5.460;2023-01-01T10:58:46;11.57;;;4.20;;
58472;SDS011;44775;51.564;5.460;2023-01-01T11:01:27;18.08;;;7.47;;
58472;SDS011;44775;51.564;5.460;2023-01-01T11:06:38;15.02;;;4.93;;
58472;SDS011;44775;51.564;5.460;2023-01-01T11:12:01;16.00;;;5.68;;
58472;SDS011;44775;51.564;5.460;2023-01-01T11:14:32;17.77;;;6.80;;
58472;SDS011;44775;51.564;5.460;2023-01-01T11:17:03;19.35;;;8.93;;
58472;SDS011;44775;51.564;5.460;2023-01-01T11:19:30;13.07;;;5.30;;
58472;SDS011;44775;51.564;5.460;2023-01-01T11:21:58;14.68;;;5.07;;
58472;SDS011;44775;51.564;5.460;2023-01-01T11:24:25;13.10;;;4.18;;
58472;SDS011;44775;51.564;5.460;2023-01-01T11:26:53;12.03;;;4.30;;
58472;SDS011;44775;51.564;5.460;2023-01-01T11:29:43;15.23;;;3.90;;
58472;SDS011;44775;51.564;5.460;2023-01-01T11:32:08;12.63;;;3.80;;
58472;SDS011;44775;51.564;5.460;2023-01-01T11:34:41;13.32;;;3.70;;
58472;SDS011;44775;51.564;5.460;2023-01-01T11:37:09;12.80;;;3.92;;
58472;SDS011;44775;51.564;5.460;2023-01-01T11:39:43;13.15;;;3.40;;
58472;SDS011;44775;51.564;5.460;2023-01-01T11:44:47;14.25;;;4.20;;
58472;SDS011;44775;51.564;5.460;2023-01-01T11:50:38;11.57;;;3.85;;
58472;SDS011;44775;51.564;5.460;2023-01-01T11:52:51;13.07;;;3.38;;
58472;SDS011;44775;51.564;5.460;2023-01-01T11:55:36;10.88;;;3.25;;
58472;SDS011;44775;51.564;5.460;2023-01-01T12:00:46;11.10;;;3.10;;
58472;SDS011;44775;51.564;5.460;2023-01-01T12:06:09;12.55;;;3.20;;
58472;SDS011;44775;51.564;5.460;2023-01-01T12:08:38;11.43;;;2.67;;
58472;SDS011;44775;51.564;5.460;2023-01-01T12:14:25;9.52;;;2.90;;
58472;SDS011;44775;51.564;5.460;2023-01-01T12:17:01;7.53;;;2.22;;
58472;SDS011;44775;51.564;5.460;2023-01-01T12:22:28;7.75;;;2.60;;
58472;SDS011;44775;51.564;5.460;2023-01-01T12:24:54;11.23;;;2.72;;
58472;SDS011;44775;51.564;5.460;2023-01-01T12:30:00;13.65;;;3.00;;
58472;SDS011;44775;51.564;5.460;2023-01-01T12:35:08;10.88;;;3.00;;
58472;SDS011;44775;51.564;5.460;2023-01-01T12:43:04;6.18;;;2.03;;
58472;SDS011;44775;51.564;5.460;2023-01-01T12:59:11;11.88;;;2.45;;
58472;SDS011;44775;51.564;5.460;2023-01-01T13:01:54;14.45;;;3.00;;
58472;SDS011;44775;51.564;5.460;2023-01-01T13:04:22;10.75;;;3.20;;
58472;SDS011;44775;51.564;5.460;2023-01-01T13:06:52;9.98;;;3.45;;
58472;SDS011;44775;51.564;5.460;2023-01-01T13:09:25;8.30;;;2.70;;
58472;SDS011;44775;51.564;5.460;2023-01-01T13:11:58;11.82;;;2.72;;
58472;SDS011;44775;51.564;5.460;2023-01-01T13:14:28;14.25;;;3.08;;
58472;SDS011;44775;51.564;5.460;2023-01-01T13:16:54;10.95;;;2.97;;
58472;SDS011;44775;51.564;5.460;2023-01-01T13:19:26;10.95;;;3.05;;
58472;SDS011;44775;51.564;5.460;2023-01-01T13:21:56;12.45;;;2.88;;
58472;SDS011;44775;51.564;5.460;2023-01-01T13:24:23;10.18;;;2.47;;
58472;SDS011;44775;51.564;5.460;2023-01-01T13:26:50;10.87;;;3.23;;
58472;SDS011;44775;51.564;5.460;2023-01-01T13:37:31;9.65;;;2.83;;
58472;SDS011;44775;51.564;5.460;2023-01-01T13:42:41;11.55;;;2.70;;
58472;SDS011;44775;51.564;5.460;2023-01-01T13:45:13;9.77;;;2.60;;
58472;SDS011;44775;51.564;5.460;2023-01-01T13:50:37;12.38;;;2.88;;
58472;SDS011;44775;51.564;5.460;2023-01-01T14:03:46;10.73;;;3.10;;
58472;SDS011;44775;51.564;5.460;2023-01-01T14:06:25;12.70;;;3.60;;
58472;SDS011;44775;51.564;5.460;2023-01-01T14:08:59;17.70;;;4.07;;
58472;SDS011;44775;51.564;5.460;2023-01-01T14:11:26;14.07;;;3.90;;
58472;SDS011;44775;51.564;5.460;2023-01-01T14:13:53;10.98;;;3.03;;
58472;SDS011;44775;51.564;5.460;2023-01-01T14:16:18;12.25;;;3.45;;
58472;SDS011;44775;51.564;5.460;2023-01-01T14:18:45;12.40;;;3.25;;
58472;SDS011;44775;51.564;5.460;2023-01-01T14:21:13;16.02;;;4.10;;
58472;SDS011;44775;51.564;5.460;2023-01-01T14:23:44;11.93;;;3.70;;
58472;SDS011;44775;51.564;5.460;2023-01-01T14:26:15;16.40;;;4.00;;
58472;SDS011;44775;51.564;5.460;2023-01-01T14:28:43;17.90;;;4.28;;
58472;SDS011;44775;51.564;5.460;2023-01-01T14:33:39;13.82;;;3.28;;
58472;SDS011;44775;51.564;5.460;2023-01-01T14:36:20;13.52;;;3.40;;
58472;SDS011;44775;51.564;5.460;2023-01-01T14:38:47;13.43;;;4.20;;
58472;SDS011;44775;51.564;5.460;2023-01-01T14:43:43;18.05;;;6.40;;
58472;SDS011;44775;51.564;5.460;2023-01-01T14:46:15;22.98;;;6.95;;
58472;SDS011;44775;51.564;5.460;2023-01-01T14:48:47;14.48;;;6.82;;
58472;SDS011;44775;51.564;5.460;2023-01-01T14:51:18;15.07;;;6.97;;
58472;SDS011;44775;51.564;5.460;2023-01-01T14:53:50;14.63;;;5.28;;
58472;SDS011;44775;51.564;5.460;2023-01-01T14:56:29;15.88;;;5.45;;
58472;SDS011;44775;51.564;5.460;2023-01-01T15:04:24;12.38;;;4.70;;
58472;SDS011;44775;51.564;5.460;2023-01-01T15:06:54;16.02;;;3.92;;
58472;SDS011;44775;51.564;5.460;2023-01-01T15:09:23;12.73;;;3.78;;
58472;SDS011;44775;51.564;5.460;2023-01-01T15:11:53;19.02;;;4.70;;
58472;SDS011;44775;51.564;5.460;2023-01-01T15:14:35;15.38;;;4.60;;
58472;SDS011;44775;51.564;5.460;2023-01-01T15:19:30;14.30;;;4.38;;
58472;SDS011;44775;51.564;5.460;2023-01-01T15:21:55;14.25;;;4.40;;
58472;SDS011;44775;51.564;5.460;2023-01-01T15:24:22;13.57;;;4.05;;
58472;SDS011;44775;51.564;5.460;2023-01-01T15:27:00;12.50;;;4.20;;
58472;SDS011;44775;51.564;5.460;2023-01-01T15:29:32;12.85;;;4.63;;
58472;SDS011;44775;51.564;5.460;2023-01-01T15:32:06;16.60;;;5.72;;
58472;SDS011;44775;51.564;5.460;2023-01-01T15:34:39;17.75;;;4.20;;
58472;SDS011;44775;51.564;5.460;2023-01-01T15:37:30;14.93;;;5.00;;
58472;SDS011;44775;51.564;5.460;2023-01-01T15:42:40;12.48;;;3.78;;
58472;SDS011;44775;51.564;5.460;2023-01-01T15:45:20;16.85;;;5.25;;
58472;SDS011;44775;51.564;5.460;2023-01-01T15:47:57;12.25;;;4.80;;
58472;SDS011;44775;51.564;5.460;2023-01-01T15:50:56;33.60;;;19.85;;
58472;SDS011;44775;51.564;5.460;2023-01-01T15:53:29;17.80;;;7.70;;
58472;SDS011;44775;51.564;5.460;2023-01-01T15:56:02;14.13;;;5.20;;
58472;SDS011;44775;51.564;5.460;2023-01-01T16:01:08;12.55;;;4.30;;
58472;SDS011;44775;51.564;5.460;2023-01-01T16:03:37;14.73;;;4.70;;
58472;SDS011;44775;51.564;5.460;2023-01-01T16:06:04;12.40;;;3.93;;
58472;SDS011;44775;51.564;5.460;2023-01-01T16:08:30;15.45;;;5.72;;
58472;SDS011;44775;51.564;5.460;2023-01-01T16:10:56;13.80;;;5.85;;
58472;SDS011;44775;51.564;5.460;2023-01-01T16:13:21;23.48;;;7.65;;
58472;SDS011;44775;51.564;5.460;2023-01-01T16:15:50;20.20;;;7.20;;
58472;SDS011;44775;51.564;5.460;2023-01-01T16:18:19;13.95;;;4.65;;
58472;SDS011;44775;51.564;5.460;2023-01-01T16:20:52;17.02;;;4.57;;
58472;SDS011;44775;51.564;5.460;2023-01-01T16:23:18;20.05;;;7.68;;
58472;SDS011;44775;51.564;5.460;2023-01-01T16:25:44;17.33;;;7.75;;
58472;SDS011;44775;51.564;5.460;2023-01-01T16:28:09;34.63;;;14.45;;
58472;SDS011;44775;51.564;5.460;2023-01-01T16:30:35;36.95;;;14.10;;
58472;SDS011;44775;51.564;5.460;2023-01-01T16:33:00;24.67;;;8.93;;
58472;SDS011;44775;51.564;5.460;2023-01-01T16:35:26;16.98;;;7.47;;
58472;SDS011;44775;51.564;5.460;2023-01-01T16:37:52;15.60;;;6.43;;
58472;SDS011;44775;51.564;5.460;2023-01-01T16:40:17;16.05;;;6.28;;
58472;SDS011;44775;51.564;5.460;2023-01-01T16:42:43;17.25;;;7.00;;
58472;SDS011;44775;51.564;5.460;2023-01-01T16:45:13;29.70;;;15.98;;
58472;SDS011;44775;51.564;5.460;2023-01-01T16:47:43;31.17;;;15.48;;
58472;SDS011;44775;51.564;5.460;2023-01-01T16:50:09;17.67;;;7.20;;
58472;SDS011;44775;51.564;5.460;2023-01-01T16:52:35;25.67;;;8.57;;
58472;SDS011;44775;51.564;5.460;2023-01-01T16:55:00;21.85;;;7.18;;
58472;SDS011;44775;51.564;5.460;2023-01-01T16:57:26;18.50;;;6.68;;
58472;SDS011;44775;51.564;5.460;2023-01-01T16:59:51;15.95;;;5.90;;
58472;SDS011;44775;51.564;5.460;2023-01-01T17:02:17;19.98;;;6.10;;
58472;SDS011;44775;51.564;5.460;2023-01-01T17:04:42;20.38;;;7.28;;
58472;SDS011;44775;51.564;5.460;2023-01-01T17:07:08;17.98;;;7.43;;
58472;SDS011;44775;51.564;5.460;2023-01-01T17:09:33;41.20;;;16.42;;